createdAt,value
2023-01-12T00:00:39.090Z,81.80
2023-01-12T00:03:26.896Z,81.96
2023-01-12T00:06:06.259Z,82.35
2023-01-12T00:08:40.445Z,82.51
2023-01-12T00:11:14.835Z,82.81
2023-01-12T00:13:49.049Z,82.98
2023-01-12T00:16:38.213Z,83.05
2023-01-12T00:19:14.338Z,83.21
2023-01-12T00:21:59.871Z,83.49
2023-01-12T00:24:35.845Z,83.47
2023-01-12T00:27:11.161Z,83.77
2023-01-12T00:29:45.376Z,83.86
2023-01-12T00:32:22.532Z,84.11
2023-01-12T00:34:56.485Z,84.19
2023-01-12T00:37:30.569Z,84.59
2023-01-12T00:40:04.562Z,84.69
2023-01-12T00:42:55.896Z,84.65
2023-01-12T00:45:30.474Z,85.01
2023-01-12T00:48:04.175Z,85.41
2023-01-12T00:50:38.459Z,86.47
2023-01-12T00:53:11.923Z,86.60
2023-01-12T00:55:46.486Z,86.99
2023-01-12T00:58:20.617Z,87.20
2023-01-12T01:00:54.010Z,87.27
2023-01-12T01:03:27.690Z,87.47
2023-01-12T01:06:07.039Z,87.59
2023-01-12T01:08:41.062Z,87.75
2023-01-12T01:11:16.982Z,88.02
2023-01-12T01:13:50.776Z,88.22
2023-01-12T01:16:25.740Z,88.20
2023-01-12T01:19:00.877Z,88.25
2023-01-12T01:21:34.703Z,88.63
2023-01-12T01:24:11.142Z,88.73
2023-01-12T01:26:45.378Z,88.75
2023-01-12T01:29:18.892Z,89.08
2023-01-12T01:31:52.947Z,89.27
2023-01-12T01:34:26.901Z,89.30
2023-01-12T01:37:00.870Z,89.25
2023-01-12T01:39:34.416Z,89.30
2023-01-12T01:42:28.446Z,89.36
2023-01-12T01:45:06.410Z,89.21
2023-01-12T01:47:44.505Z,89.53
2023-01-12T01:50:24.688Z,89.60
2023-01-12T01:53:01.556Z,89.73
2023-01-12T01:55:39.388Z,89.96
2023-01-12T01:58:18.001Z,89.79
2023-01-12T02:00:53.068Z,89.85
2023-01-12T02:03:28.012Z,89.83
2023-01-12T02:06:02.382Z,89.97
2023-01-12T02:08:43.225Z,89.95
2023-01-12T02:11:31.646Z,90.05
2023-01-12T02:14:21.730Z,90.33
2023-01-12T02:17:05.597Z,90.35
2023-01-12T02:20:12.170Z,90.57
2023-01-12T02:23:12.789Z,90.53
2023-01-12T02:26:10.768Z,90.64
2023-01-12T02:29:15.128Z,90.87
2023-01-12T02:31:52.928Z,90.95
2023-01-12T02:34:37.764Z,90.81
2023-01-12T02:37:22.425Z,90.65
2023-01-12T02:40:03.673Z,90.73
2023-01-12T02:42:47.965Z,90.64
2023-01-12T02:45:36.824Z,90.79
2023-01-12T02:48:15.772Z,90.83
2023-01-12T02:50:56.129Z,90.86
2023-01-12T02:53:36.639Z,90.89
2023-01-12T02:56:12.100Z,90.95
2023-01-12T02:58:52.931Z,90.86
2023-01-12T03:01:29.046Z,90.80
2023-01-12T03:04:04.398Z,90.95
2023-01-12T03:06:48.550Z,90.80
2023-01-12T03:09:22.478Z,90.96
2023-01-12T03:12:01.201Z,90.82
2023-01-12T03:14:36.944Z,90.80
2023-01-12T03:17:16.455Z,90.83
2023-01-12T03:19:52.139Z,90.86
2023-01-12T03:22:26.392Z,90.75
2023-01-12T03:25:02.631Z,90.85
2023-01-12T03:27:42.238Z,90.90
2023-01-12T03:30:20.563Z,90.98
2023-01-12T03:32:54.948Z,90.92
2023-01-12T03:35:34.950Z,90.78
2023-01-12T03:38:17.681Z,90.96
2023-01-12T03:40:57.781Z,90.87
2023-01-12T03:43:38.500Z,90.65
2023-01-12T03:46:18.368Z,90.68
2023-01-12T03:48:57.124Z,90.82
2023-01-12T03:51:31.597Z,90.93
2023-01-12T03:54:07.577Z,90.85
2023-01-12T03:56:43.510Z,90.76
2023-01-12T03:59:17.774Z,90.79
2023-01-12T04:01:52.032Z,90.77
2023-01-12T04:04:25.950Z,90.57
2023-01-12T04:07:01.725Z,90.56
2023-01-12T04:09:35.779Z,90.63
2023-01-12T04:12:14.474Z,90.70
2023-01-12T04:14:48.990Z,90.63
2023-01-12T04:17:25.600Z,90.55
2023-01-12T04:19:59.284Z,90.58
2023-01-12T04:22:48.182Z,90.47
2023-01-12T04:25:23.598Z,90.39
2023-01-12T04:28:01.203Z,90.33
2023-01-12T04:30:36.328Z,90.34
2023-01-12T04:33:11.830Z,90.34
2023-01-12T04:35:48.453Z,90.17
2023-01-12T04:38:22.105Z,89.91
2023-01-12T04:40:58.394Z,89.69
2023-01-12T04:43:32.209Z,89.75
2023-01-12T04:46:11.199Z,89.66
2023-01-12T04:48:46.155Z,89.64
2023-01-12T04:51:19.988Z,89.72
2023-01-12T04:53:54.007Z,89.66
2023-01-12T04:56:27.493Z,89.42
2023-01-12T04:59:01.769Z,89.17
2023-01-12T05:01:37.149Z,89.05
2023-01-12T05:04:11.291Z,88.92
2023-01-12T05:06:45.306Z,89.00
2023-01-12T05:09:35.989Z,89.18
2023-01-12T05:12:10.210Z,89.14
2023-01-12T05:14:44.002Z,89.05
2023-01-12T05:17:17.742Z,88.83
2023-01-12T05:19:51.559Z,88.80
2023-01-12T05:22:25.113Z,88.71
2023-01-12T05:24:58.993Z,88.66
2023-01-12T05:27:32.961Z,88.74
2023-01-12T05:30:07.932Z,88.72
2023-01-12T05:32:42.730Z,89.02
2023-01-12T05:35:16.779Z,88.88
2023-01-12T05:37:50.605Z,88.96
2023-01-12T05:40:24.666Z,88.73
2023-01-12T05:43:16.029Z,88.58
2023-01-12T05:45:50.187Z,88.47
2023-01-12T05:48:23.987Z,88.37
2023-01-12T05:51:01.029Z,88.25
2023-01-12T05:53:34.701Z,88.29
2023-01-12T05:56:13.669Z,88.42
2023-01-12T05:58:49.904Z,88.55
2023-01-12T06:01:24.921Z,88.47
2023-01-12T06:04:01.109Z,88.44
2023-01-12T06:06:34.936Z,88.47
2023-01-12T06:09:09.230Z,88.65
2023-01-12T06:12:08.953Z,88.42
2023-01-12T06:14:42.664Z,88.41
2023-01-12T06:17:16.181Z,88.38
2023-01-12T06:19:50.063Z,88.15
2023-01-12T06:22:24.260Z,88.18
2023-01-12T06:24:58.192Z,88.17
2023-01-12T06:27:36.263Z,88.22
2023-01-12T06:30:12.585Z,88.22
2023-01-12T06:32:45.870Z,87.96
2023-01-12T06:35:20.112Z,87.93
2023-01-12T06:37:56.616Z,88.09
2023-01-12T06:40:30.329Z,88.10
2023-01-12T06:43:04.006Z,88.09
2023-01-12T06:45:37.458Z,88.16
2023-01-12T06:48:11.703Z,88.23
2023-01-12T06:50:45.201Z,88.15
2023-01-12T06:53:18.750Z,88.12
2023-01-12T06:55:55.489Z,87.98
2023-01-12T06:58:29.171Z,87.72
2023-01-12T07:01:06.325Z,87.56
2023-01-12T07:03:40.272Z,87.68
2023-01-12T07:06:14.839Z,87.80
2023-01-12T07:08:48.480Z,87.60
2023-01-12T07:11:22.283Z,87.44
2023-01-12T07:13:56.939Z,87.42
2023-01-12T07:16:30.626Z,87.21
2023-01-12T07:19:04.348Z,87.27
2023-01-12T07:21:38.133Z,87.32
2023-01-12T07:24:12.241Z,87.09
2023-01-12T07:26:45.985Z,87.09
2023-01-12T07:29:19.865Z,87.01
2023-01-12T07:31:54.095Z,87.15
2023-01-12T07:34:28.081Z,87.11
2023-01-12T07:37:01.790Z,86.81
2023-01-12T07:39:35.632Z,86.54
2023-01-12T07:42:26.044Z,86.57
2023-01-12T07:44:59.672Z,86.64
2023-01-12T07:47:33.466Z,86.78
2023-01-12T07:50:08.302Z,86.65
2023-01-12T07:52:41.885Z,86.38
2023-01-12T07:55:17.059Z,86.34
2023-01-12T07:58:00.221Z,86.20
2023-01-12T08:00:34.602Z,86.21
2023-01-12T08:03:10.429Z,86.28
2023-01-12T08:05:44.503Z,86.14
2023-01-12T08:08:18.271Z,86.08
2023-01-12T08:10:52.515Z,86.05
2023-01-12T08:13:26.188Z,85.89
2023-01-12T08:16:05.458Z,85.82
2023-01-12T08:18:45.382Z,85.77
2023-01-12T08:21:23.793Z,85.71
2023-01-12T08:24:01.127Z,85.39
2023-01-12T08:26:38.528Z,85.18
2023-01-12T08:29:16.430Z,85.11
2023-01-12T08:31:51.096Z,84.91
2023-01-12T08:34:24.818Z,84.80
2023-01-12T08:37:00.421Z,84.80
2023-01-12T08:39:35.620Z,84.83
2023-01-12T08:42:09.533Z,84.78
2023-01-12T08:44:43.350Z,84.59
2023-01-12T08:47:22.107Z,84.88
2023-01-12T08:49:55.738Z,86.02
2023-01-12T08:52:33.284Z,85.76
2023-01-12T08:55:11.648Z,84.93
2023-01-12T08:57:45.659Z,84.75
2023-01-12T09:00:21.962Z,84.71
2023-01-12T09:02:55.651Z,84.22
2023-01-12T09:05:30.681Z,84.22
2023-01-12T09:08:04.450Z,84.54
2023-01-12T09:10:38.277Z,85.05
2023-01-12T09:13:16.245Z,83.69
2023-01-12T09:16:01.325Z,81.53
2023-01-12T09:18:44.646Z,80.80
2023-01-12T09:21:19.810Z,79.05
2023-01-12T09:23:53.968Z,78.30
2023-01-12T09:26:32.288Z,77.69
2023-01-12T09:29:06.471Z,77.28
2023-01-12T09:31:41.864Z,77.92
2023-01-12T09:34:15.881Z,78.46
2023-01-12T09:36:52.801Z,79.19
2023-01-12T09:39:29.302Z,79.33
2023-01-12T09:42:20.907Z,79.50
2023-01-12T09:45:11.999Z,79.81
2023-01-12T09:47:55.696Z,79.90
2023-01-12T09:50:34.219Z,80.10
2023-01-12T09:53:14.431Z,80.60
2023-01-12T09:55:53.770Z,80.68
2023-01-12T09:58:40.420Z,80.68
2023-01-12T10:01:28.789Z,80.54
2023-01-12T10:04:05.191Z,80.69
2023-01-12T10:06:39.545Z,80.82
2023-01-12T10:09:18.171Z,80.60
2023-01-12T10:11:53.541Z,81.29
2023-01-12T10:14:53.845Z,80.82
2023-01-12T10:17:50.307Z,80.83
2023-01-12T10:20:34.322Z,79.74
2023-01-12T10:23:17.149Z,79.35
2023-01-12T10:25:52.238Z,79.30
2023-01-12T10:28:30.070Z,78.83
2023-01-12T10:31:04.366Z,78.58
2023-01-12T10:33:37.958Z,79.40
2023-01-12T10:36:18.105Z,78.57
2023-01-12T10:39:03.566Z,78.69
2023-01-12T10:41:38.385Z,76.84
2023-01-12T10:44:18.020Z,76.42
2023-01-12T10:47:11.889Z,77.58
2023-01-12T10:49:45.518Z,76.57
2023-01-12T10:52:39.493Z,75.86
2023-01-12T10:55:21.712Z,76.01
2023-01-12T10:57:56.087Z,74.49
2023-01-12T11:00:31.490Z,75.39
2023-01-12T11:03:05.088Z,75.49
2023-01-12T11:05:40.174Z,73.75
2023-01-12T11:08:27.797Z,71.88
2023-01-12T11:11:16.285Z,69.04
2023-01-12T11:13:48.337Z,68.70
2023-01-12T11:16:26.599Z,71.19
2023-01-12T11:19:18.023Z,69.96
2023-01-12T11:21:55.875Z,70.07
2023-01-12T11:24:53.588Z,68.45
2023-01-12T11:27:31.629Z,67.86
2023-01-12T11:30:13.498Z,67.56
2023-01-12T11:32:55.931Z,68.71
2023-01-12T11:35:37.943Z,67.10
2023-01-12T11:38:18.926Z,66.19
2023-01-12T11:40:54.263Z,65.33
2023-01-12T11:43:56.225Z,64.23
2023-01-12T11:46:36.503Z,66.26
2023-01-12T11:49:18.472Z,65.53
2023-01-12T11:51:57.347Z,64.70
2023-01-12T11:54:30.058Z,63.33
2023-01-12T11:57:37.104Z,63.94
2023-01-12T12:00:29.763Z,63.52
2023-01-12T12:03:19.862Z,63.39
2023-01-12T12:06:01.100Z,65.03
2023-01-12T12:08:49.469Z,64.46
2023-01-12T12:11:36.467Z,64.16
2023-01-12T12:14:29.347Z,62.86
2023-01-12T12:17:11.213Z,64.05
2023-01-12T12:19:55.565Z,64.88
2023-01-12T12:22:48.891Z,64.74
2023-01-12T12:25:30.827Z,65.02
2023-01-12T12:28:29.598Z,63.43
2023-01-12T12:31:17.723Z,61.98
2023-01-12T12:34:22.167Z,62.12
2023-01-12T12:37:03.010Z,63.79
2023-01-12T12:39:47.894Z,64.36
2023-01-12T12:42:54.189Z,64.40
2023-01-12T12:45:37.609Z,64.29
2023-01-12T12:48:16.862Z,65.07
2023-01-12T12:51:01.926Z,64.89
2023-01-12T12:53:37.559Z,64.80
2023-01-12T12:56:14.679Z,64.13
2023-01-12T12:58:50.039Z,64.43
2023-01-12T13:01:58.671Z,64.96
2023-01-12T13:05:04.985Z,65.14
2023-01-12T13:07:45.726Z,64.92
2023-01-12T13:10:35.783Z,64.99
2023-01-12T13:13:27.817Z,64.58
2023-01-12T13:16:47.518Z,64.29
2023-01-12T13:19:39.122Z,64.42
2023-01-12T13:22:45.743Z,64.94
2023-01-12T13:25:57.117Z,65.73
2023-01-12T13:28:31.083Z,65.96
2023-01-12T13:31:06.945Z,66.15
2023-01-12T13:33:40.693Z,66.60
2023-01-12T13:36:14.982Z,66.73
2023-01-12T13:39:14.657Z,66.74
2023-01-12T13:42:08.247Z,67.01
2023-01-12T13:44:46.227Z,66.86
2023-01-12T13:47:27.185Z,66.78
2023-01-12T13:50:04.190Z,66.91
2023-01-12T13:52:39.784Z,66.66
2023-01-12T13:55:27.898Z,66.82
2023-01-12T13:58:04.777Z,67.09
2023-01-12T14:00:38.385Z,67.28
2023-01-12T14:03:27.250Z,67.28
2023-01-12T14:06:06.121Z,66.97
2023-01-12T14:09:06.651Z,66.88
2023-01-12T14:12:04.888Z,67.16
2023-01-12T14:15:17.051Z,67.21
2023-01-12T14:17:53.148Z,67.11
2023-01-12T14:20:30.181Z,67.25
2023-01-12T14:23:25.570Z,67.25
2023-01-12T14:26:20.178Z,67.56
2023-01-12T14:28:54.661Z,67.43
2023-01-12T14:31:33.666Z,67.43
2023-01-12T14:34:08.824Z,67.47
2023-01-12T14:36:46.997Z,67.55
2023-01-12T14:39:23.124Z,67.72
2023-01-12T14:42:16.227Z,67.78
2023-01-12T14:45:15.111Z,68.38
2023-01-12T14:47:48.850Z,68.86
2023-01-12T14:50:24.275Z,68.94
2023-01-12T14:52:58.054Z,68.90
2023-01-12T14:55:41.627Z,69.12
2023-01-12T14:58:23.555Z,69.27
2023-01-12T15:00:57.506Z,69.43
2023-01-12T15:03:42.886Z,69.60
2023-01-12T15:06:19.529Z,69.63
2023-01-12T15:09:01.974Z,69.82
2023-01-12T15:11:37.949Z,70.02
2023-01-12T15:14:25.649Z,70.14
2023-01-12T15:17:17.047Z,70.33
2023-01-12T15:20:08.631Z,70.46
2023-01-12T15:23:08.777Z,70.60
2023-01-12T15:25:43.238Z,70.66
2023-01-12T15:28:17.338Z,70.71
2023-01-12T15:30:51.033Z,70.93
2023-01-12T15:33:25.384Z,71.06
2023-01-12T15:35:59.189Z,71.14
2023-01-12T15:38:32.755Z,71.22
2023-01-12T15:41:07.719Z,71.29
2023-01-12T15:43:41.398Z,71.36
2023-01-12T15:46:21.729Z,71.47
2023-01-12T15:48:55.468Z,71.56
2023-01-12T15:51:29.185Z,71.61
2023-01-12T15:54:03.215Z,71.59
2023-01-12T15:56:37.025Z,71.73
2023-01-12T15:59:11.021Z,71.90
2023-01-12T16:01:47.317Z,71.99
2023-01-12T16:07:18.470Z,72.10
2023-01-12T16:09:52.147Z,72.29
2023-01-12T16:12:26.476Z,72.36
2023-01-12T16:15:01.553Z,72.43
2023-01-12T16:17:35.826Z,72.59
2023-01-12T16:20:12.078Z,72.87
2023-01-12T16:22:47.034Z,72.93
2023-01-12T16:25:21.309Z,73.22
2023-01-12T16:28:00.983Z,73.03
2023-01-12T16:30:35.060Z,73.06
2023-01-12T16:33:08.762Z,73.44
2023-01-12T16:35:42.451Z,73.49
2023-01-12T16:38:17.582Z,73.58
2023-01-12T16:40:51.824Z,73.85
2023-01-12T16:43:26.509Z,73.73
2023-01-12T16:46:00.535Z,73.81
2023-01-12T16:48:38.889Z,73.88
2023-01-12T16:51:17.986Z,73.89
2023-01-12T16:53:51.721Z,73.89
2023-01-12T16:56:25.508Z,74.01
2023-01-12T16:58:59.086Z,74.08
2023-01-12T17:01:33.614Z,74.28
2023-01-12T17:04:07.690Z,74.49
2023-01-12T17:06:42.541Z,74.56
2023-01-12T17:09:17.189Z,74.50
2023-01-12T17:11:52.955Z,74.60
2023-01-12T17:14:27.920Z,74.78
2023-01-12T17:17:04.301Z,75.20
2023-01-12T17:19:40.171Z,75.31
2023-01-12T17:22:14.831Z,75.24
2023-01-12T17:24:49.144Z,75.42
2023-01-12T17:27:23.003Z,75.59
2023-01-12T17:29:56.604Z,75.59
2023-01-12T17:32:30.496Z,75.74
2023-01-12T17:35:07.534Z,75.83
2023-01-12T17:37:41.210Z,75.88
2023-01-12T17:40:16.536Z,76.00
2023-01-12T17:43:08.100Z,76.31
2023-01-12T17:45:45.311Z,76.31
2023-01-12T17:48:20.081Z,76.43
2023-01-12T17:50:53.849Z,76.54
2023-01-12T17:53:28.290Z,76.64
2023-01-12T17:56:06.499Z,76.50
2023-01-12T17:58:41.227Z,76.59
2023-01-12T18:01:17.835Z,76.61
2023-01-12T18:03:51.939Z,76.58
2023-01-12T18:06:27.183Z,76.46
2023-01-12T18:09:01.716Z,76.55
2023-01-12T18:11:36.417Z,76.64
2023-01-12T18:14:11.323Z,76.61
2023-01-12T18:16:45.550Z,76.55
2023-01-12T18:19:19.723Z,76.55
2023-01-12T18:21:54.176Z,76.60
2023-01-12T18:24:27.869Z,76.65
2023-01-12T18:27:01.870Z,76.60
2023-01-12T18:29:36.932Z,76.63
2023-01-12T18:32:11.707Z,76.61
2023-01-12T18:34:46.954Z,76.57
2023-01-12T18:37:21.273Z,76.56
2023-01-12T18:39:55.946Z,76.43
2023-01-12T18:42:47.601Z,76.44
2023-01-12T18:45:22.512Z,76.45
2023-01-12T18:48:25.181Z,76.44
2023-01-12T18:51:17.274Z,76.36
2023-01-12T18:53:52.307Z,76.31
2023-01-12T18:56:27.550Z,76.09
2023-01-12T18:59:02.027Z,76.18
2023-01-12T19:01:36.274Z,76.21
2023-01-12T19:04:15.995Z,76.11
2023-01-12T19:06:58.956Z,75.99
2023-01-12T19:09:39.107Z,75.82
2023-01-12T19:12:14.846Z,75.76
2023-01-12T19:15:07.343Z,75.70
2023-01-12T19:17:43.482Z,75.81
2023-01-12T19:20:18.125Z,75.80
2023-01-12T19:23:09.653Z,75.83
2023-01-12T19:26:01.758Z,75.82
2023-01-12T19:28:40.983Z,75.69
2023-01-12T19:31:17.278Z,75.60
2023-01-12T19:33:54.347Z,75.36
2023-01-12T19:36:29.356Z,75.27
2023-01-12T19:39:07.592Z,75.22
2023-01-12T19:42:01.961Z,75.10
2023-01-12T19:44:37.618Z,74.95
2023-01-12T19:47:13.452Z,74.97
2023-01-12T19:49:47.677Z,74.92
2023-01-12T19:52:22.683Z,74.87
2023-01-12T19:54:58.416Z,74.72
2023-01-12T19:57:34.236Z,74.77
2023-01-12T20:00:14.324Z,74.81
2023-01-12T20:02:49.362Z,74.78
2023-01-12T20:05:27.719Z,74.83
2023-01-12T20:08:05.421Z,74.67
2023-01-12T20:10:42.630Z,74.51
2023-01-12T20:13:18.960Z,74.34
2023-01-12T20:15:58.147Z,74.46
2023-01-12T20:18:33.404Z,74.31
2023-01-12T20:21:12.925Z,74.28
2023-01-12T20:23:49.116Z,74.07
2023-01-12T20:26:26.140Z,74.00
2023-01-12T20:29:01.627Z,73.83
2023-01-12T20:31:37.758Z,73.97
2023-01-12T20:34:12.727Z,73.93
2023-01-12T20:36:47.882Z,74.01
2023-01-12T20:39:24.444Z,73.94
2023-01-12T20:42:01.967Z,73.68
2023-01-12T20:44:37.532Z,73.50
2023-01-12T20:47:12.971Z,73.50
2023-01-12T20:49:46.828Z,73.60
2023-01-12T20:52:21.360Z,73.50
2023-01-12T20:54:56.561Z,73.34
2023-01-12T20:57:31.843Z,73.21
2023-01-12T21:00:06.747Z,73.13
2023-01-12T21:02:42.689Z,73.03
2023-01-12T21:05:18.933Z,73.22
2023-01-12T21:08:00.015Z,73.07
2023-01-12T21:10:42.788Z,72.95
2023-01-12T21:13:16.378Z,72.79
2023-01-12T21:15:50.328Z,73.06
2023-01-12T21:18:23.969Z,72.91
2023-01-12T21:20:58.313Z,72.87
2023-01-12T21:23:32.173Z,72.88
2023-01-12T21:26:08.332Z,72.75
2023-01-12T21:28:43.007Z,72.54
2023-01-12T21:31:17.144Z,72.56
2023-01-12T21:33:51.113Z,72.53
2023-01-12T21:36:25.308Z,72.32
2023-01-12T21:38:59.529Z,72.30
2023-01-12T21:41:53.336Z,72.25
2023-01-12T21:44:27.948Z,72.26
2023-01-12T21:47:02.298Z,72.22
2023-01-12T21:49:36.161Z,72.01
2023-01-12T21:52:09.774Z,71.75
2023-01-12T21:54:43.686Z,71.79
2023-01-12T21:57:17.444Z,72.01
2023-01-12T21:59:50.997Z,71.79
2023-01-12T22:02:24.736Z,71.60
2023-01-12T22:04:58.729Z,71.42
2023-01-12T22:07:32.587Z,71.33
2023-01-12T22:10:20.437Z,71.10
2023-01-12T22:12:57.206Z,71.39
2023-01-12T22:15:32.083Z,71.45
2023-01-12T22:18:07.376Z,71.62
2023-01-12T22:20:42.290Z,71.69
2023-01-12T22:23:16.803Z,71.44
2023-01-12T22:25:51.217Z,71.43
2023-01-12T22:28:24.883Z,71.29
2023-01-12T22:30:58.355Z,71.39
2023-01-12T22:33:32.554Z,71.44
2023-01-12T22:36:08.642Z,71.18
2023-01-12T22:38:42.983Z,71.06
2023-01-12T22:41:16.904Z,71.26
2023-01-12T22:43:51.408Z,71.21
2023-01-12T22:46:27.132Z,71.33
2023-01-12T22:49:01.676Z,71.05
2023-01-12T22:51:35.407Z,71.26
2023-01-12T22:54:09.193Z,71.29
2023-01-12T22:56:43.006Z,71.24
2023-01-12T22:59:17.026Z,71.09
2023-01-12T23:01:50.915Z,71.11
2023-01-12T23:04:25.003Z,71.19
2023-01-12T23:06:58.683Z,70.98
2023-01-12T23:09:32.435Z,71.06
2023-01-12T23:12:06.343Z,71.14
2023-01-12T23:14:40.693Z,71.12
2023-01-12T23:17:15.080Z,70.89
2023-01-12T23:19:49.233Z,70.91
2023-01-12T23:22:22.798Z,71.21
2023-01-12T23:24:56.631Z,71.29
2023-01-12T23:27:30.620Z,71.47
2023-01-12T23:30:04.604Z,71.37
2023-01-12T23:35:30.072Z,71.25
2023-01-12T23:38:04.142Z,71.10
2023-01-12T23:40:37.931Z,71.27
2023-01-12T23:43:11.988Z,71.32
2023-01-12T23:45:45.783Z,71.20
2023-01-12T23:48:19.531Z,71.23
2023-01-12T23:50:54.155Z,71.29
2023-01-12T23:53:27.795Z,71.26
2023-01-12T23:56:06.949Z,71.34
2023-01-12T23:58:40.685Z,71.11
